createdAt,value
2019-02-26T00:01:55.162Z,13.20
2019-02-26T00:04:41.346Z,12.63
2019-02-26T00:07:28.175Z,13.20
2019-02-26T00:10:14.438Z,11.93
2019-02-26T00:12:59.579Z,13.47
2019-02-26T00:15:45.897Z,12.33
2019-02-26T00:18:31.712Z,15.73
2019-02-26T00:21:16.517Z,15.83
2019-02-26T00:24:01.648Z,19.20
2019-02-26T00:26:46.887Z,16.07
2019-02-26T00:29:32.250Z,14.57
2019-02-26T00:32:18.521Z,19.80
2019-02-26T00:35:05.286Z,17.07
2019-02-26T00:37:51.193Z,16.73
2019-02-26T00:40:39.316Z,14.53
2019-02-26T00:43:27.387Z,19.17
2019-02-26T00:46:11.156Z,16.70
2019-02-26T00:48:58.565Z,19.13
2019-02-26T00:51:46.022Z,19.47
2019-02-26T00:54:32.000Z,16.93
2019-02-26T00:57:18.539Z,19.27
2019-02-26T01:00:13.063Z,16.77
2019-02-26T01:02:57.996Z,19.30
2019-02-26T01:05:43.219Z,16.13
2019-02-26T01:08:31.365Z,13.83
2019-02-26T01:11:16.429Z,15.40
2019-02-26T01:14:01.416Z,16.23
2019-02-26T01:16:48.241Z,13.57
2019-02-26T01:19:34.166Z,16.93
2019-02-26T01:22:20.253Z,15.33
2019-02-26T01:25:07.131Z,13.67
2019-02-26T01:27:53.154Z,14.90
2019-02-26T01:30:40.476Z,17.10
2019-02-26T01:33:27.805Z,14.67
2019-02-26T01:36:14.000Z,13.13
2019-02-26T01:38:59.232Z,16.90
2019-02-26T01:41:46.043Z,14.40
2019-02-26T01:44:32.992Z,12.90
2019-02-26T01:47:19.596Z,13.93
2019-02-26T01:50:09.351Z,13.57
2019-02-26T01:52:56.247Z,17.63
2019-02-26T01:55:43.699Z,13.30
2019-02-26T01:58:28.790Z,13.03
2019-02-26T02:01:14.348Z,12.27
2019-02-26T02:04:01.146Z,13.87
2019-02-26T02:06:46.434Z,12.50
2019-02-26T02:09:31.424Z,13.50
2019-02-26T02:12:16.582Z,12.87
2019-02-26T02:15:03.023Z,12.50
2019-02-26T02:17:48.153Z,13.93
2019-02-26T02:20:33.096Z,12.27
2019-02-26T02:23:19.391Z,11.90
2019-02-26T02:26:07.147Z,12.43
2019-02-26T02:28:51.512Z,14.20
2019-02-26T02:31:37.836Z,12.43
2019-02-26T02:34:26.501Z,13.13
2019-02-26T02:37:10.121Z,12.63
2019-02-26T02:39:55.201Z,13.00
2019-02-26T02:42:43.195Z,11.77
2019-02-26T02:45:28.876Z,12.20
2019-02-26T02:48:14.517Z,13.13
2019-02-26T02:51:02.082Z,15.33
2019-02-26T02:53:47.959Z,17.57
2019-02-26T02:56:36.154Z,17.77
2019-02-26T02:59:20.457Z,19.10
2019-02-26T03:02:05.431Z,18.20
2019-02-26T03:04:50.530Z,16.70
2019-02-26T03:07:35.529Z,13.70
2019-02-26T03:10:20.337Z,17.37
2019-02-26T03:13:05.817Z,17.53
2019-02-26T03:15:53.470Z,16.13
2019-02-26T03:18:37.859Z,18.57
2019-02-26T03:21:24.813Z,18.23
2019-02-26T03:24:10.514Z,17.90
2019-02-26T03:26:56.997Z,18.57
2019-02-26T03:29:42.191Z,18.10
2019-02-26T03:32:26.941Z,21.23
2019-02-26T03:35:13.255Z,21.73
2019-02-26T03:38:00.675Z,22.97
2019-02-26T03:40:45.459Z,17.20
2019-02-26T03:43:31.383Z,24.60
2019-02-26T03:46:17.273Z,17.50
2019-02-26T03:49:03.660Z,16.00
2019-02-26T03:51:49.352Z,15.00
2019-02-26T03:54:37.261Z,17.53
2019-02-26T03:57:22.693Z,13.87
2019-02-26T04:00:17.446Z,18.23
2019-02-26T04:03:03.520Z,15.13
2019-02-26T04:05:51.435Z,15.47
2019-02-26T04:08:36.553Z,15.27
2019-02-26T04:11:22.830Z,13.63
2019-02-26T04:14:12.100Z,14.43
2019-02-26T04:16:56.097Z,15.20
2019-02-26T04:19:44.451Z,14.83
2019-02-26T04:22:30.695Z,14.77
2019-02-26T04:25:36.478Z,15.87
2019-02-26T04:28:27.240Z,20.63
2019-02-26T04:31:22.187Z,15.23
2019-02-26T04:34:10.746Z,14.80
2019-02-26T04:37:01.432Z,18.67
2019-02-26T04:39:49.887Z,16.90
2019-02-26T04:42:55.890Z,21.27
2019-02-26T04:46:13.004Z,18.83
2019-02-26T04:48:57.294Z,17.67
2019-02-26T04:51:44.934Z,16.80
2019-02-26T04:54:33.103Z,17.87
2019-02-26T04:57:17.669Z,19.23
2019-02-26T05:00:05.223Z,18.83
2019-02-26T05:02:50.819Z,20.20
2019-02-26T05:05:37.141Z,19.20
2019-02-26T05:08:22.723Z,18.00
2019-02-26T05:11:07.738Z,19.30
2019-02-26T05:13:52.747Z,19.03
2019-02-26T05:16:40.191Z,17.23
2019-02-26T05:19:24.439Z,18.27
2019-02-26T05:22:09.434Z,16.60
2019-02-26T05:24:54.699Z,18.33
2019-02-26T05:27:42.809Z,16.47
2019-02-26T05:30:26.427Z,18.03
2019-02-26T05:33:11.209Z,16.93
2019-02-26T05:35:56.050Z,15.50
2019-02-26T05:38:42.736Z,15.97
2019-02-26T05:41:27.391Z,16.00
2019-02-26T05:44:12.294Z,17.73
2019-02-26T05:46:58.744Z,17.17
2019-02-26T05:49:45.885Z,18.83
2019-02-26T05:52:33.214Z,17.57
2019-02-26T05:55:20.718Z,16.67
2019-02-26T05:58:07.283Z,19.50
2019-02-26T06:00:51.496Z,19.77
2019-02-26T06:03:38.548Z,16.83
2019-02-26T06:06:23.922Z,18.23
2019-02-26T06:09:08.559Z,21.60
2019-02-26T06:11:53.804Z,19.57
2019-02-26T06:14:39.379Z,17.07
2019-02-26T06:17:24.507Z,18.70
2019-02-26T06:20:20.428Z,20.93
2019-02-26T06:23:05.618Z,20.30
2019-02-26T06:25:50.570Z,20.37
2019-02-26T06:28:40.186Z,21.67
2019-02-26T06:31:24.999Z,20.13
2019-02-26T06:34:11.304Z,24.37
2019-02-26T06:37:00.184Z,24.77
2019-02-26T06:39:50.575Z,39.37
2019-02-26T06:42:35.459Z,31.80
2019-02-26T06:45:20.615Z,27.93
2019-02-26T06:48:06.315Z,28.63
2019-02-26T06:50:51.696Z,26.00
2019-02-26T06:53:36.659Z,21.10
2019-02-26T06:56:21.661Z,26.37
2019-02-26T06:59:09.707Z,24.60
2019-02-26T07:01:56.056Z,21.00
2019-02-26T07:04:40.945Z,26.37
2019-02-26T07:07:26.840Z,23.60
2019-02-26T07:10:18.418Z,26.70
2019-02-26T07:13:02.133Z,27.97
2019-02-26T07:15:48.446Z,24.73
2019-02-26T07:18:34.039Z,30.23
2019-02-26T07:21:19.206Z,23.80
2019-02-26T07:24:07.650Z,23.90
2019-02-26T07:26:52.574Z,23.07
2019-02-26T07:29:40.126Z,19.87
2019-02-26T07:32:24.921Z,19.23
2019-02-26T07:35:13.110Z,22.53
2019-02-26T07:37:59.453Z,22.93
2019-02-26T07:40:44.667Z,18.40
2019-02-26T07:43:29.415Z,16.53
2019-02-26T07:46:14.616Z,18.73
2019-02-26T07:49:04.230Z,18.80
2019-02-26T07:51:47.975Z,17.13
2019-02-26T07:54:32.649Z,23.53
2019-02-26T07:57:18.180Z,22.20
2019-02-26T08:00:13.970Z,21.63
2019-02-26T08:03:00.182Z,21.37
2019-02-26T08:05:45.805Z,22.83
2019-02-26T08:08:30.891Z,28.27
2019-02-26T08:11:15.982Z,25.27
2019-02-26T08:14:01.544Z,21.80
2019-02-26T08:16:49.276Z,21.23
2019-02-26T08:19:34.966Z,22.83
2019-02-26T08:22:20.509Z,27.33
2019-02-26T08:25:07.041Z,21.90
2019-02-26T08:27:53.947Z,21.00
2019-02-26T08:30:42.264Z,20.93
2019-02-26T08:33:25.943Z,24.50
2019-02-26T08:36:13.563Z,19.93
2019-02-26T08:38:58.124Z,24.60
2019-02-26T08:42:04.225Z,19.57
2019-02-26T08:44:51.087Z,24.90
2019-02-26T08:47:36.197Z,24.37
2019-02-26T08:50:20.958Z,19.67
2019-02-26T08:53:05.861Z,18.90
2019-02-26T08:55:51.535Z,21.03
2019-02-26T08:58:37.583Z,19.73
2019-02-26T09:01:22.397Z,19.63
2019-02-26T09:04:07.514Z,17.43
2019-02-26T09:06:54.791Z,20.07
2019-02-26T09:09:40.528Z,20.17
2019-02-26T09:12:27.180Z,19.50
2019-02-26T09:15:17.113Z,20.00
2019-02-26T09:18:02.125Z,22.87
2019-02-26T09:20:47.482Z,18.57
2019-02-26T09:23:32.955Z,20.57
2019-02-26T09:26:19.990Z,20.37
2019-02-26T09:29:04.967Z,17.10
2019-02-26T09:31:50.065Z,18.50
2019-02-26T09:34:37.956Z,20.30
2019-02-26T09:37:23.590Z,18.03
2019-02-26T09:40:17.203Z,20.03
2019-02-26T09:43:02.980Z,20.93
2019-02-26T09:45:48.677Z,22.10
2019-02-26T09:48:35.925Z,25.37
2019-02-26T09:51:21.909Z,21.17
2019-02-26T09:54:06.750Z,21.63
2019-02-26T09:56:52.528Z,21.47
2019-02-26T09:59:38.527Z,27.10
2019-02-26T10:02:26.008Z,24.87
2019-02-26T10:05:14.071Z,19.73
2019-02-26T10:08:02.010Z,22.37
2019-02-26T10:10:46.034Z,21.30
2019-02-26T10:13:30.962Z,19.60
2019-02-26T10:16:15.767Z,21.83
2019-02-26T10:19:00.713Z,20.93
2019-02-26T10:21:45.516Z,19.53
2019-02-26T10:24:32.879Z,18.60
2019-02-26T10:27:17.374Z,21.50
2019-02-26T10:30:09.915Z,19.83
2019-02-26T10:32:52.758Z,21.73
2019-02-26T10:35:44.362Z,19.03
2019-02-26T10:38:29.592Z,21.37
2019-02-26T10:41:13.424Z,21.57
2019-02-26T10:43:57.984Z,19.53
2019-02-26T10:46:44.487Z,20.87
2019-02-26T10:49:29.935Z,20.30
2019-02-26T10:52:16.887Z,23.47
2019-02-26T10:55:02.439Z,26.27
2019-02-26T10:57:47.791Z,22.40
2019-02-26T11:00:35.360Z,24.33
2019-02-26T11:03:20.424Z,24.87
2019-02-26T11:06:07.393Z,23.90
2019-02-26T11:08:55.739Z,22.67
2019-02-26T11:11:42.312Z,23.43
2019-02-26T11:14:27.660Z,25.43
2019-02-26T11:17:13.065Z,25.13
2019-02-26T11:19:59.153Z,25.23
2019-02-26T11:22:47.202Z,24.07
2019-02-26T11:25:33.185Z,24.73
2019-02-26T11:28:18.383Z,21.57
2019-02-26T11:31:04.924Z,23.50
2019-02-26T11:33:49.765Z,24.50
2019-02-26T11:36:36.589Z,24.57
2019-02-26T11:39:22.125Z,25.35
2019-02-26T11:42:07.043Z,23.33
2019-02-26T11:44:51.833Z,26.60
2019-02-26T11:47:37.424Z,25.00
2019-02-26T11:50:28.136Z,24.63
2019-02-26T11:53:11.527Z,25.00
2019-02-26T11:55:56.938Z,23.75
2019-02-26T11:58:43.089Z,22.32
2019-02-26T12:01:29.315Z,23.55
2019-02-26T12:04:17.024Z,20.75
2019-02-26T12:07:04.136Z,20.45
2019-02-26T12:09:50.648Z,22.95
2019-02-26T12:12:36.870Z,23.47
2019-02-26T12:15:22.814Z,24.45
2019-02-26T12:18:09.880Z,25.52
2019-02-26T12:20:54.933Z,24.40
2019-02-26T12:23:43.495Z,25.97
2019-02-26T12:26:28.057Z,22.75
2019-02-26T12:29:16.002Z,21.02
2019-02-26T12:32:04.541Z,21.35
2019-02-26T12:34:48.507Z,22.40
2019-02-26T12:37:34.953Z,21.80
2019-02-26T12:40:22.242Z,22.45
2019-02-26T12:43:09.133Z,23.18
2019-02-26T12:45:56.006Z,23.42
2019-02-26T12:48:43.911Z,20.20
2019-02-26T12:51:29.514Z,20.95
2019-02-26T12:54:15.687Z,22.90
2019-02-26T12:57:04.055Z,22.25
2019-02-26T12:59:47.631Z,23.45
2019-02-26T13:02:33.054Z,20.97
2019-02-26T13:05:19.651Z,19.62
2019-02-26T13:08:06.244Z,21.52
2019-02-26T13:10:56.107Z,16.82
2019-02-26T13:13:39.992Z,20.50
2019-02-26T13:16:25.002Z,21.87
2019-02-26T13:19:10.082Z,22.58
2019-02-26T13:22:00.193Z,22.60
2019-02-26T13:24:41.924Z,21.60
2019-02-26T13:27:26.763Z,20.30
2019-02-26T13:30:24.678Z,20.37
2019-02-26T13:33:10.974Z,20.10
2019-02-26T13:36:00.494Z,18.85
2019-02-26T13:38:45.857Z,18.40
2019-02-26T13:41:30.477Z,17.60
2019-02-26T13:44:16.806Z,18.10
2019-02-26T13:47:02.112Z,18.23
2019-02-26T13:49:47.076Z,16.82
2019-02-26T13:52:32.257Z,16.40
2019-02-26T13:55:17.617Z,18.98
2019-02-26T13:58:11.384Z,15.38
2019-02-26T14:00:49.282Z,13.75
2019-02-26T14:03:34.585Z,13.60
2019-02-26T14:06:19.679Z,12.88
2019-02-26T14:09:05.726Z,13.15
2019-02-26T14:11:51.089Z,13.08
2019-02-26T14:14:36.314Z,11.12
2019-02-26T14:17:21.498Z,11.35
2019-02-26T14:20:09.145Z,14.05
2019-02-26T14:22:54.143Z,14.35
2019-02-26T14:25:39.315Z,13.58
2019-02-26T14:28:24.084Z,14.40
2019-02-26T14:31:09.456Z,14.47
2019-02-26T14:33:54.829Z,11.85
2019-02-26T14:36:41.462Z,11.90
2019-02-26T14:39:26.542Z,12.30
2019-02-26T14:42:11.322Z,12.43
2019-02-26T14:44:56.717Z,12.55
2019-02-26T14:47:42.384Z,11.63
2019-02-26T14:50:27.589Z,10.38
2019-02-26T14:53:13.051Z,11.73
2019-02-26T14:55:58.288Z,10.00
2019-02-26T14:58:43.443Z,10.25
2019-02-26T15:01:28.263Z,10.60
2019-02-26T15:04:13.551Z,12.23
2019-02-26T15:06:58.347Z,12.47
2019-02-26T15:09:43.332Z,12.98
2019-02-26T15:12:28.386Z,11.28
2019-02-26T15:15:16.547Z,14.90
2019-02-26T15:18:02.000Z,13.20
2019-02-26T15:20:47.084Z,14.65
2019-02-26T15:23:31.736Z,15.20
2019-02-26T15:26:16.858Z,13.45
2019-02-26T15:29:03.779Z,15.55
2019-02-26T15:31:49.252Z,16.15
2019-02-26T15:34:35.057Z,14.18
2019-02-26T15:37:20.326Z,14.15
2019-02-26T15:40:09.014Z,14.80
2019-02-26T15:42:56.329Z,15.83
2019-02-26T15:45:40.715Z,20.10
2019-02-26T15:48:27.464Z,16.15
2019-02-26T15:51:14.602Z,17.82
2019-02-26T15:53:59.588Z,17.17
2019-02-26T15:56:44.823Z,18.35
2019-02-26T15:59:29.873Z,17.77
2019-02-26T16:02:15.080Z,18.77
2019-02-26T16:05:00.225Z,18.00
2019-02-26T16:07:45.140Z,17.52
2019-02-26T16:10:30.388Z,18.62
2019-02-26T16:13:15.619Z,16.65
2019-02-26T16:16:01.163Z,20.77
2019-02-26T16:18:45.956Z,18.05
2019-02-26T16:21:30.903Z,17.20
2019-02-26T16:24:16.203Z,16.45
2019-02-26T16:27:01.053Z,17.73
2019-02-26T16:29:46.289Z,16.57
2019-02-26T16:32:31.515Z,16.25
2019-02-26T16:35:16.795Z,17.62
2019-02-26T16:38:01.841Z,16.00
2019-02-26T16:40:47.112Z,18.80
2019-02-26T16:43:32.092Z,17.82
2019-02-26T16:46:17.535Z,16.20
2019-02-26T16:49:03.014Z,17.87
2019-02-26T16:51:47.858Z,19.95
2019-02-26T16:54:33.381Z,16.50
2019-02-26T16:57:18.287Z,16.97
2019-02-26T17:00:06.868Z,15.10
2019-02-26T17:02:51.967Z,14.97
2019-02-26T17:05:37.025Z,16.57
2019-02-26T17:08:22.386Z,18.03
2019-02-26T17:11:07.823Z,15.70
2019-02-26T17:13:53.007Z,17.33
2019-02-26T17:16:38.439Z,17.70
2019-02-26T17:19:23.564Z,15.90
2019-02-26T17:22:09.128Z,17.00
2019-02-26T17:24:54.186Z,16.03
2019-02-26T17:27:39.692Z,19.37
2019-02-26T17:30:25.938Z,19.27
2019-02-26T17:33:13.301Z,18.67
2019-02-26T17:35:59.615Z,17.83
2019-02-26T17:38:46.416Z,18.33
2019-02-26T17:41:31.829Z,17.07
2019-02-26T17:44:17.233Z,17.03
2019-02-26T17:47:02.726Z,19.63
2019-02-26T17:49:47.858Z,18.17
2019-02-26T17:52:32.741Z,16.77
2019-02-26T17:55:17.831Z,16.63
2019-02-26T17:58:02.758Z,19.43
2019-02-26T18:00:52.464Z,19.13
2019-02-26T18:03:37.543Z,17.83
2019-02-26T18:06:24.094Z,19.30
2019-02-26T18:09:09.192Z,17.83
2019-02-26T18:11:54.793Z,18.63
2019-02-26T18:14:39.891Z,17.17
2019-02-26T18:17:25.732Z,18.17
2019-02-26T18:20:15.883Z,18.03
2019-02-26T18:23:01.130Z,17.77
2019-02-26T18:25:46.492Z,19.33
2019-02-26T18:28:31.449Z,21.83
2019-02-26T18:31:16.784Z,23.60
2019-02-26T18:34:02.627Z,19.87
2019-02-26T18:36:47.826Z,19.27
2019-02-26T18:39:33.299Z,22.07
2019-02-26T18:42:18.453Z,19.30
2019-02-26T18:45:13.678Z,22.20
2019-02-26T18:47:58.890Z,18.47
2019-02-26T18:50:44.231Z,19.83
2019-02-26T18:53:29.456Z,23.03
2019-02-26T18:56:15.295Z,22.00
2019-02-26T18:59:00.038Z,22.53
2019-02-26T19:01:45.509Z,22.83
2019-02-26T19:04:30.862Z,28.03
2019-02-26T19:07:15.771Z,25.87
2019-02-26T19:10:01.297Z,22.57
2019-02-26T19:12:46.532Z,23.33
2019-02-26T19:15:33.861Z,20.63
2019-02-26T19:18:19.317Z,21.53
2019-02-26T19:21:05.029Z,21.53
2019-02-26T19:23:50.326Z,21.33
2019-02-26T19:26:35.668Z,22.27
2019-02-26T19:29:20.906Z,20.60
2019-02-26T19:32:05.914Z,21.00
2019-02-26T19:34:52.786Z,26.60
2019-02-26T19:37:38.253Z,23.33
2019-02-26T19:40:30.382Z,21.20
2019-02-26T19:43:15.697Z,26.03
2019-02-26T19:46:02.269Z,23.47
2019-02-26T19:48:47.601Z,25.90
2019-02-26T19:51:34.707Z,24.03
2019-02-26T19:54:19.705Z,22.97
2019-02-26T19:57:05.357Z,30.40
2019-02-26T19:59:50.565Z,24.80
2019-02-26T20:02:36.434Z,23.47
2019-02-26T20:05:21.819Z,24.33
2019-02-26T20:08:08.685Z,28.97
2019-02-26T20:10:54.205Z,25.13
2019-02-26T20:13:42.136Z,25.33
2019-02-26T20:16:27.901Z,25.77
2019-02-26T20:19:13.622Z,26.97
2019-02-26T20:21:58.741Z,27.47
2019-02-26T20:24:44.335Z,28.60
2019-02-26T20:27:31.054Z,25.00
2019-02-26T20:30:23.032Z,27.50
2019-02-26T20:33:10.411Z,27.93
2019-02-26T20:35:55.696Z,31.97
2019-02-26T20:38:40.865Z,30.07
2019-02-26T20:41:26.181Z,27.93
2019-02-26T20:44:11.732Z,26.83
2019-02-26T20:46:58.065Z,30.83
2019-02-26T20:49:46.303Z,30.10
2019-02-26T20:52:32.958Z,32.27
2019-02-26T20:55:21.835Z,26.60
2019-02-26T20:58:06.999Z,29.10
2019-02-26T21:00:52.487Z,26.90
2019-02-26T21:03:37.750Z,29.50
2019-02-26T21:06:23.443Z,30.97
2019-02-26T21:09:08.416Z,27.27
2019-02-26T21:11:55.846Z,30.10
2019-02-26T21:14:41.407Z,31.10
2019-02-26T21:17:27.102Z,28.90
2019-02-26T21:20:13.134Z,27.83
2019-02-26T21:22:58.346Z,27.77
2019-02-26T21:25:44.435Z,25.90
2019-02-26T21:28:33.304Z,28.73
2019-02-26T21:31:19.654Z,31.87
2019-02-26T21:34:05.226Z,32.43
2019-02-26T21:36:50.712Z,26.90
2019-02-26T21:39:35.634Z,31.57
2019-02-26T21:42:20.809Z,29.63
2019-02-26T21:45:08.767Z,31.33
2019-02-26T21:47:54.031Z,31.37
2019-02-26T21:50:39.915Z,30.20
2019-02-26T21:53:24.582Z,27.53
2019-02-26T21:56:09.579Z,27.40
2019-02-26T21:58:59.395Z,28.00
2019-02-26T22:01:45.881Z,27.60
2019-02-26T22:04:31.738Z,26.93
2019-02-26T22:07:16.818Z,26.03
2019-02-26T22:10:07.267Z,28.53
2019-02-26T22:12:56.635Z,30.60
2019-02-26T22:15:42.086Z,27.27
2019-02-26T22:18:31.160Z,26.97
2019-02-26T22:21:13.607Z,27.87
2019-02-26T22:23:58.940Z,31.43
2019-02-26T22:26:43.990Z,25.50
2019-02-26T22:29:29.962Z,26.10
2019-02-26T22:32:15.226Z,27.70
2019-02-26T22:35:00.391Z,29.37
2019-02-26T22:37:45.530Z,29.37
2019-02-26T22:40:30.706Z,24.50
2019-02-26T22:43:16.343Z,29.53
2019-02-26T22:46:01.764Z,27.20
2019-02-26T22:48:48.324Z,25.77
2019-02-26T22:51:33.276Z,26.00
2019-02-26T22:54:18.215Z,25.80
2019-02-26T22:57:03.621Z,25.07
2019-02-26T22:59:48.665Z,25.83
2019-02-26T23:02:35.284Z,26.83
2019-02-26T23:05:20.475Z,24.07
2019-02-26T23:08:05.755Z,25.73
2019-02-26T23:10:51.439Z,26.27
2019-02-26T23:13:36.430Z,26.57
2019-02-26T23:16:22.227Z,24.33
2019-02-26T23:19:07.307Z,25.20
2019-02-26T23:21:52.385Z,26.33
2019-02-26T23:24:37.826Z,23.97
2019-02-26T23:27:22.991Z,24.17
2019-02-26T23:30:10.692Z,25.60
2019-02-26T23:32:55.712Z,27.90
2019-02-26T23:35:41.213Z,27.63
2019-02-26T23:38:26.385Z,25.43
2019-02-26T23:41:11.601Z,28.23
2019-02-26T23:43:58.461Z,30.57
2019-02-26T23:46:43.561Z,26.10
2019-02-26T23:49:28.596Z,27.80
2019-02-26T23:52:13.797Z,28.33
2019-02-26T23:54:58.511Z,31.90
2019-02-26T23:57:43.672Z,29.17
